Time;durP1;ratioP1;P1;durP2;ratioP2;P2;SDS_P1;SDS_P2;PMS_P1;PMS_P2;Temp;Humidity;BMP_temperature;BMP_pressure;BME280_temperature;BME280_humidity;BME280_pressure;Samples;Min_cycle;Max_cycle;Signal;HPM_P1;HPM_P2
2022/03/17 00:00:31;;;;;;;27.02;14.60;;;;;;;6.45;100.00;102548.13;10216100;28;20053;-68
2022/03/17 00:05:28;;;;;;;30.30;16.33;;;;;;;6.56;100.00;102539.09;10204648;28;20128;-68
2022/03/17 00:10:24;;;;;;;27.35;14.55;;;;;;;6.43;100.00;102532.09;10205525;28;20049;-68
2022/03/17 00:15:21;;;;;;;32.10;16.27;;;;;;;6.49;100.00;102536.53;10190711;28;20111;-70
2022/03/17 00:20:17;;;;;;;33.20;17.88;;;;;;;6.55;100.00;102531.19;10198666;28;20089;-68
2022/03/17 00:25:14;;;;;;;32.92;17.30;;;;;;;6.47;100.00;102530.50;10187894;28;20053;-70
2022/03/17 00:30:11;;;;;;;34.60;18.23;;;;;;;6.29;100.00;102522.63;10212585;28;20049;-69
2022/03/17 00:40:23;;;;;;;42.70;20.10;;;;;;;6.32;100.00;102514.78;10197887;28;20128;-70
2022/03/17 00:45:20;;;;;;;44.85;21.27;;;;;;;6.25;100.00;102522.25;10214384;28;20057;-70
2022/03/17 00:50:17;;;;;;;46.00;21.88;;;;;;;6.09;100.00;102506.75;10207786;28;20096;-71
2022/03/17 00:55:14;;;;;;;40.70;19.95;;;;;;;6.25;100.00;102510.56;10210207;28;20515;-71
2022/03/17 01:00:16;;;;;;;46.13;23.48;;;;;;;6.31;100.00;102499.56;10198108;28;20053;-70
2022/03/17 01:05:13;;;;;;;42.63;22.23;;;;;;;6.05;100.00;102489.28;10203064;28;20049;-70
2022/03/17 01:10:18;;;;;;;40.75;22.75;;;;;;;6.28;100.00;102493.78;10207534;28;20147;-70
2022/03/17 01:15:16;;;;;;;45.08;22.95;;;;;;;6.18;100.00;102489.00;10200858;28;20188;-69
2022/03/17 01:20:15;;;;;;;41.22;22.30;;;;;;;6.25;100.00;102489.66;10201243;28;20046;-70
2022/03/17 01:25:12;;;;;;;47.80;26.38;;;;;;;6.21;100.00;102482.25;10201159;28;20483;-70
2022/03/17 01:30:09;;;;;;;48.58;24.55;;;;;;;6.12;100.00;102473.66;10221964;28;20707;-70
2022/03/17 01:35:08;;;;;;;43.40;23.98;;;;;;;6.14;100.00;102482.41;10203682;28;20065;-70
2022/03/17 01:40:05;;;;;;;46.88;26.13;;;;;;;6.02;100.00;102476.22;10218530;28;20206;-71
2022/03/17 01:45:03;;;;;;;45.80;26.08;;;;;;;6.14;100.00;102476.16;10227846;28;20103;-68
2022/03/17 01:50:07;;;;;;;49.75;26.60;;;;;;;6.13;100.00;102479.91;10216846;28;20049;-70
2022/03/17 01:55:04;;;;;;;51.28;27.40;;;;;;;6.15;100.00;102477.78;10200964;28;20082;-70
2022/03/17 02:00:03;;;;;;;47.45;25.63;;;;;;;6.15;100.00;102473.19;10199238;28;20073;-70
2022/03/17 02:05:03;;;;;;;49.28;27.98;;;;;;;6.11;100.00;102456.56;10159637;28;20120;-70
2022/03/17 02:10:00;;;;;;;47.15;26.27;;;;;;;6.06;100.00;102442.91;10164186;28;20050;-70
2022/03/17 02:15:03;;;;;;;46.80;26.98;;;;;;;6.02;100.00;102444.44;10148694;28;20482;-70
2022/03/17 02:20:03;;;;;;;52.10;28.45;;;;;;;6.02;100.00;102433.59;10164224;28;20058;-69
2022/03/17 02:30:18;;;;;;;50.50;27.58;;;;;;;5.84;100.00;102417.47;10160370;28;20080;-70
2022/03/17 02:35:18;;;;;;;51.67;28.70;;;;;;;5.99;100.00;102396.06;10148091;28;20562;-68
2022/03/17 02:40:15;;;;;;;61.28;30.25;;;;;;;5.90;100.00;102397.50;10159633;28;20085;-70
2022/03/17 02:45:12;;;;;;;55.30;29.63;;;;;;;5.86;100.00;102393.63;10170950;28;20085;-68
2022/03/17 02:50:10;;;;;;;57.28;29.45;;;;;;;5.86;100.00;102375.44;10170417;28;20073;-68
2022/03/17 02:55:11;;;;;;;51.72;29.98;;;;;;;5.84;100.00;102380.28;10156075;28;20089;-68
2022/03/17 03:00:10;;;;;;;48.72;29.38;;;;;;;5.85;100.00;102386.56;10165326;28;20728;-71
2022/03/17 03:05:07;;;;;;;53.15;30.98;;;;;;;5.97;100.00;102368.34;10139367;28;20591;-69
2022/03/17 03:10:05;;;;;;;52.85;30.33;;;;;;;5.89;100.00;102366.84;10145961;28;20041;-68
2022/03/17 03:15:02;;;;;;;55.30;30.35;;;;;;;6.03;100.00;102372.78;10142245;28;20509;-68
2022/03/17 03:19:59;;;;;;;52.00;29.90;;;;;;;5.98;100.00;102378.13;10197338;28;20495;-68
2022/03/17 03:24:57;;;;;;;56.40;32.20;;;;;;;6.03;100.00;102367.34;10159191;28;20069;-68
2022/03/17 03:29:57;;;;;;;53.03;30.98;;;;;;;5.93;100.00;102355.47;10161055;28;20847;-68
2022/03/17 03:34:54;;;;;;;54.92;32.25;;;;;;;5.98;100.00;102361.00;10132912;28;20073;-70
2022/03/17 03:39:51;;;;;;;50.85;30.30;;;;;;;5.89;100.00;102341.56;10153207;28;20042;-70
2022/03/17 03:44:48;;;;;;;56.08;31.10;;;;;;;6.01;100.00;102342.34;10151769;28;20077;-70
2022/03/17 03:49:44;;;;;;;54.83;32.92;;;;;;;6.05;100.00;102332.63;10158427;28;20107;-70
2022/03/17 03:54:41;;;;;;;53.78;30.92;;;;;;;6.14;100.00;102340.34;10170352;28;20065;-69
2022/03/17 03:59:38;;;;;;;53.53;31.95;;;;;;;6.00;100.00;102324.41;10151628;28;20496;-69
2022/03/17 04:04:38;;;;;;;55.38;32.40;;;;;;;6.08;100.00;102321.28;10157442;28;20479;-70
2022/03/17 04:09:39;;;;;;;54.90;33.70;;;;;;;6.14;100.00;102318.63;10162348;28;20154;-71
2022/03/17 04:14:36;;;;;;;51.90;31.98;;;;;;;6.19;100.00;102326.84;10158314;28;20685;-70
2022/03/17 04:19:33;;;;;;;53.90;32.65;;;;;;;6.05;100.00;102332.63;10153535;28;20658;-70
2022/03/17 04:24:30;;;;;;;52.80;30.90;;;;;;;6.22;100.00;102318.19;10165508;28;20046;-71
2022/03/17 04:29:28;;;;;;;51.13;32.17;;;;;;;6.13;100.00;102295.25;10160844;28;20042;-68
2022/03/17 04:34:24;;;;;;;54.50;32.75;;;;;;;6.16;100.00;102294.78;10170688;28;20705;-69
2022/03/17 04:39:21;;;;;;;56.03;33.65;;;;;;;6.16;100.00;102284.72;10157052;28;20053;-69
2022/03/17 04:44:17;;;;;;;52.20;32.15;;;;;;;6.23;100.00;102289.97;10160959;28;20093;-69
2022/03/17 04:49:14;;;;;;;55.30;32.95;;;;;;;6.24;100.00;102291.59;10165229;28;20050;-69
2022/03/17 04:54:10;;;;;;;49.35;30.80;;;;;;;6.27;100.00;102291.13;10154216;28;20124;-69
2022/03/17 04:59:07;;;;;;;53.75;33.17;;;;;;;6.20;100.00;102290.50;10167876;28;20519;-69
2022/03/17 05:04:03;;;;;;;55.65;33.45;;;;;;;6.18;100.00;102281.75;10172435;28;20046;-68
2022/03/17 05:09:00;;;;;;;54.25;33.08;;;;;;;6.28;100.00;102282.72;10148903;28;20575;-69
2022/03/17 05:13:56;;;;;;;51.70;31.48;;;;;;;6.31;100.00;102282.22;10148187;28;20418;-70
2022/03/17 05:18:53;;;;;;;55.40;33.85;;;;;;;6.39;100.00;102283.69;10143603;28;20042;-70
2022/03/17 05:23:50;;;;;;;56.38;34.30;;;;;;;6.46;100.00;102284.31;10153317;28;20137;-70
2022/03/17 05:28:46;;;;;;;52.90;33.15;;;;;;;6.42;100.00;102271.50;10154992;28;20459;-69
2022/03/17 05:33:44;;;;;;;56.33;32.95;;;;;;;6.39;100.00;102283.69;10159762;28;20370;-68
2022/03/17 05:38:40;;;;;;;51.88;33.08;;;;;;;6.44;100.00;102297.34;10162808;28;20050;-69
2022/03/17 05:43:37;;;;;;;54.15;32.30;;;;;;;6.48;100.00;102287.59;10154628;28;20046;-68
2022/03/17 05:48:33;;;;;;;57.55;33.70;;;;;;;6.51;100.00;102276.22;10137882;28;20069;-68
2022/03/17 05:53:30;;;;;;;53.33;32.67;;;;;;;6.51;100.00;102268.06;10148107;28;20145;-68
2022/03/17 05:58:26;;;;;;;50.85;32.20;;;;;;;6.53;100.00;102274.09;10149154;28;20042;-70
2022/03/17 06:03:23;;;;;;;54.47;33.97;;;;;;;6.55;100.00;102292.06;10146706;28;20054;-68
2022/03/17 06:08:19;;;;;;;51.00;32.83;;;;;;;6.56;100.00;102288.25;10147286;28;20042;-69
2022/03/17 06:13:16;;;;;;;56.15;33.80;;;;;;;6.59;100.00;102282.28;10147168;28;20121;-68
2022/03/17 06:18:12;;;;;;;53.38;32.47;;;;;;;6.62;100.00;102295.41;10146099;28;20484;-67
2022/03/17 06:23:09;;;;;;;51.95;32.17;;;;;;;6.63;100.00;102286.16;10148670;28;20065;-69
2022/03/17 06:28:07;;;;;;;54.13;35.03;;;;;;;6.61;100.00;102277.44;10145703;28;20054;-68
2022/03/17 06:33:04;;;;;;;54.78;33.50;;;;;;;6.70;100.00;102278.63;10150899;28;20464;-68
2022/03/17 06:38:03;;;;;;;55.92;31.40;;;;;;;6.72;100.00;102284.63;10151798;28;20060;-68
2022/03/17 06:43:01;;;;;;;54.55;34.53;;;;;;;6.75;100.00;102284.13;10152613;28;20065;-69
2022/03/17 06:47:58;;;;;;;55.03;32.95;;;;;;;6.77;100.00;102279.25;10144786;28;20555;-68
2022/03/17 06:52:55;;;;;;;51.53;31.73;;;;;;;6.81;100.00;102274.97;10152494;28;20082;-68
2022/03/17 06:57:52;;;;;;;61.75;35.28;;;;;;;6.77;100.00;102279.25;10150196;28;20042;-68
2022/03/17 07:02:48;;;;;;;57.20;34.67;;;;;;;6.79;100.00;102279.81;10152206;28;20054;-67
2022/03/17 07:07:45;;;;;;;53.67;34.47;;;;;;;6.85;100.00;102292.41;10149833;28;20132;-68
2022/03/17 07:12:42;;;;;;;54.00;35.90;;;;;;;6.85;100.00;102286.97;10152340;28;20104;-68
2022/03/17 07:17:40;;;;;;;51.45;34.05;;;;;;;6.88;100.00;102294.63;10149833;28;20134;-68
2022/03/17 07:22:39;;;;;;;50.72;32.80;;;;;;;6.94;100.00;102285.44;10151687;28;20132;-68
2022/03/17 07:27:41;;;;;;;51.78;33.60;;;;;;;6.93;100.00;102289.22;10149675;28;20500;-68
2022/03/17 07:32:38;;;;;;;57.20;36.15;;;;;;;7.01;100.00;102304.28;10151052;28;20050;-68
2022/03/17 07:37:35;;;;;;;57.35;35.92;;;;;;;7.03;100.00;102306.75;10150250;28;20464;-68
2022/03/17 07:42:31;;;;;;;56.75;36.13;;;;;;;7.13;100.00;102320.47;10149544;28;20165;-68
2022/03/17 07:47:28;;;;;;;53.85;35.78;;;;;;;7.16;100.00;102320.75;10145531;28;20053;-68
2022/03/17 07:52:24;;;;;;;59.90;35.65;;;;;;;7.12;100.00;102316.09;10144392;28;20584;-67
2022/03/17 07:57:21;;;;;;;54.03;34.38;;;;;;;7.24;100.00;102311.34;10143351;28;20057;-67
2022/03/17 08:02:20;;;;;;;55.75;35.75;;;;;;;7.34;100.00;102311.44;10143103;28;20085;-67
2022/03/17 08:07:17;;;;;;;53.28;33.95;;;;;;;7.44;100.00;102313.44;10144026;28;20050;-67
2022/03/17 08:12:14;;;;;;;51.28;35.97;;;;;;;7.46;100.00;102318.63;10144015;28;20077;-67
2022/03/17 08:17:10;;;;;;;59.50;36.95;;;;;;;7.48;100.00;102316.47;10145199;28;20162;-67
2022/03/17 08:22:07;;;;;;;56.85;35.83;;;;;;;7.44;100.00;102320.78;10149804;28;20050;-67
2022/03/17 08:27:04;;;;;;;53.22;34.47;;;;;;;7.41;100.00;102322.13;10147805;28;20081;-67
2022/03/17 08:32:01;;;;;;;53.88;36.38;;;;;;;7.47;100.00;102326.53;10163944;28;20085;-67
2022/03/17 08:36:59;;;;;;;57.85;36.92;;;;;;;7.48;100.00;102327.34;10147505;28;20464;-67
2022/03/17 08:41:56;;;;;;;58.15;33.30;;;;;;;7.44;100.00;102337.09;10147807;28;20133;-67
2022/03/17 08:52:09;;;;;;;53.33;36.38;;;;;;;7.55;100.00;102356.00;10147451;28;20101;-68
2022/03/17 08:57:06;;;;;;;52.75;34.40;;;;;;;7.56;100.00;102362.25;10149873;28;20166;-67
2022/03/17 09:02:05;;;;;;;54.78;34.40;;;;;;;7.52;100.00;102361.13;10150530;28;20074;-67
2022/03/17 09:07:03;;;;;;;54.85;36.17;;;;;;;7.54;100.00;102364.41;10166383;28;20488;-68
2022/03/17 09:12:05;;;;;;;59.38;36.67;;;;;;;7.58;100.00;102371.00;10173809;28;20154;-68
2022/03/17 09:17:02;;;;;;;44.00;29.00;;;;;;;7.56;100.00;102373.16;10148326;28;20161;-68
2022/03/17 09:22:00;;;;;;;57.75;37.10;;;;;;;7.51;100.00;102386.72;10149909;28;20054;-68
2022/03/17 09:26:57;;;;;;;55.20;36.97;;;;;;;7.53;100.00;102392.72;10169321;28;20050;-67
2022/03/17 09:31:56;;;;;;;53.22;36.63;;;;;;;7.49;100.00;102394.31;10154753;28;20559;-68
2022/03/17 09:36:53;;;;;;;58.95;38.25;;;;;;;7.51;100.00;102403.03;10153271;28;20158;-67
2022/03/17 09:41:49;;;;;;;59.22;38.47;;;;;;;7.41;100.00;102405.66;10155409;28;20648;-68
2022/03/17 09:46:47;;;;;;;60.08;39.35;;;;;;;7.41;100.00;102413.81;10153627;28;20050;-68
2022/03/17 09:51:45;;;;;;;56.08;35.42;;;;;;;7.45;100.00;102425.81;10169350;28;20512;-67
2022/03/17 09:56:42;;;;;;;57.63;39.42;;;;;;;7.43;100.00;102426.09;10146214;28;20073;-67
2022/03/17 10:01:40;;;;;;;57.95;39.47;;;;;;;7.48;100.00;102436.22;10147959;28;20043;-68
2022/03/17 10:06:37;;;;;;;61.58;39.35;;;;;;;7.38;100.00;102448.63;10146223;28;20050;-68
2022/03/17 10:11:37;;;;;;;60.65;42.33;;;;;;;7.31;100.00;102448.00;10148280;28;20460;-67
2022/03/17 10:16:37;;;;;;;60.50;41.00;;;;;;;7.29;100.00;102466.47;10143407;28;20065;-67
2022/03/17 10:21:34;;;;;;;68.78;42.70;;;;;;;7.24;100.00;102480.03;10148267;28;20100;-66
2022/03/17 10:26:44;;;;;;;66.53;43.83;;;;;;;7.28;100.00;102492.03;10140762;28;20601;-66
2022/03/17 10:32:06;;;;;;;65.85;43.85;;;;;;;7.22;100.00;102509.38;10140598;28;20137;-67
2022/03/17 10:37:07;;;;;;;69.72;43.13;;;;;;;7.29;100.00;102510.00;10135016;28;20057;-67
2022/03/17 10:42:12;;;;;;;63.92;41.05;;;;;;;7.32;100.00;102525.00;10134696;28;20047;-67
2022/03/17 10:47:10;;;;;;;72.15;45.60;;;;;;;7.33;100.00;102538.38;10152059;28;20574;-67
2022/03/17 10:52:06;;;;;;;63.92;40.10;;;;;;;7.34;100.00;102545.44;10164775;28;20389;-66
2022/03/17 10:57:08;;;;;;;64.07;41.40;;;;;;;7.30;100.00;102562.53;10136098;28;20042;-66
2022/03/17 11:02:08;;;;;;;63.45;40.33;;;;;;;7.38;100.00;102573.81;10140106;28;20146;-66
2022/03/17 11:07:10;;;;;;;65.03;42.28;;;;;;;7.20;100.00;102590.41;10137971;28;20049;-66
2022/03/17 11:12:17;;;;;;;57.90;40.08;;;;;;;7.27;100.00;102595.69;10137635;28;20132;-67
2022/03/17 11:17:35;;;;;;;58.25;38.33;;;;;;;7.17;100.00;102615.38;10134360;28;20101;-66
2022/03/17 11:22:33;;;;;;;56.70;35.42;;;;;;;7.14;100.00;102626.78;10138380;28;20222;-66
2022/03/17 11:27:44;;;;;;;36.35;22.48;;;;;;;7.05;100.00;102641.84;10149442;28;20575;-66
2022/03/17 11:32:54;;;;;;;37.47;23.15;;;;;;;7.01;100.00;102652.41;10151021;28;20496;-67
2022/03/17 11:38:18;;;;;;;29.90;17.98;;;;;;;6.97;100.00;102664.03;10141130;28;20069;-67
2022/03/17 11:43:14;;;;;;;30.00;15.63;;;;;;;6.94;100.00;102666.16;10145506;28;20065;-67
2022/03/17 11:48:12;;;;;;;26.05;14.00;;;;;;;7.00;100.00;102674.41;10152494;28;20137;-67
2022/03/17 11:53:19;;;;;;;24.45;11.18;;;;;;;7.06;100.00;102676.16;10189574;28;20436;-67
2022/03/17 11:58:19;;;;;;;18.45;10.35;;;;;;;7.13;100.00;102690.41;10148360;28;20472;-67
2022/03/17 12:03:45;;;;;;;25.80;10.05;;;;;;;7.25;100.00;102691.16;10147778;28;20050;-65
2022/03/17 12:08:51;;;;;;;14.90;7.72;;;;;;;7.35;100.00;102696.75;10138573;28;20039;-67
2022/03/17 12:14:25;;;;;;;15.75;6.13;;;;;;;7.22;100.00;102705.28;10141204;28;20076;-67
2022/03/17 12:19:48;;;;;;;16.33;6.20;;;;;;;7.37;100.00;102726.47;10139320;28;20042;-67
2022/03/17 12:24:52;;;;;;;18.08;5.20;;;;;;;7.32;100.00;102743.53;10143042;28;20440;-68
2022/03/17 12:29:54;;;;;;;13.30;3.53;;;;;;;7.47;100.00;102744.84;10141471;28;20039;-67
2022/03/17 12:34:53;;;;;;;11.73;3.83;;;;;;;7.57;100.00;102751.28;10144976;28;20081;-67
2022/03/17 12:39:52;;;;;;;10.98;2.20;;;;;;;7.58;100.00;102752.09;10148258;28;20042;-67
2022/03/17 12:44:56;;;;;;;10.68;2.58;;;;;;;7.44;100.00;102761.69;10148692;28;20046;-67
2022/03/17 12:50:00;;;;;;;10.82;2.05;;;;;;;7.46;100.00;102773.16;10149672;28;20050;-67
2022/03/17 12:54:59;;;;;;;9.02;1.58;;;;;;;7.34;100.00;102790.38;10188113;28;20054;-67
2022/03/17 12:59:57;;;;;;;10.27;2.15;;;;;;;7.24;100.00;102805.69;10145332;28;20129;-67
2022/03/17 13:04:56;;;;;;;15.85;1.15;;;;;;;7.17;100.00;102805.81;10146697;28;20110;-67
2022/03/17 13:09:53;;;;;;;8.55;1.17;;;;;;;7.43;100.00;102809.03;10145966;28;20464;-68
2022/03/17 13:14:50;;;;;;;12.93;1.65;;;;;;;7.68;100.00;102806.75;10141935;28;20074;-67
2022/03/17 13:19:50;;;;;;;10.73;1.67;;;;;;;7.65;100.00;102818.09;10156070;28;20548;-66
2022/03/17 13:25:09;;;;;;;14.02;2.45;;;;;;;7.78;100.00;102804.19;10142172;28;20049;-66
2022/03/17 13:30:08;;;;;;;15.93;1.80;;;;;;;7.64;100.00;102816.47;10139888;28;20108;-66
2022/03/17 13:35:08;;;;;;;12.82;2.67;;;;;;;7.55;100.00;102828.84;10142057;28;20082;-66
2022/03/17 13:40:08;;;;;;;11.43;1.85;;;;;;;7.34;100.00;102825.75;10142108;28;20562;-67
2022/03/17 13:45:05;;;;;;;15.48;1.35;;;;;;;7.24;100.00;102839.19;10149407;28;20077;-69
2022/03/17 13:50:24;;;;;;;15.43;1.63;;;;;;;7.27;100.00;102838.69;10145675;28;20080;-67
2022/03/17 13:55:21;;;;;;;13.95;1.83;;;;;;;7.33;100.00;102859.50;10144166;28;20525;-67
2022/03/17 14:00:19;;;;;;;18.55;2.20;;;;;;;7.33;100.00;102880.41;10147872;28;20141;-67
2022/03/17 14:05:16;;;;;;;16.88;2.20;;;;;;;7.25;100.00;102889.78;10148805;28;20121;-66
2022/03/17 14:10:12;;;;;;;14.75;2.28;;;;;;;7.19;100.00;102901.63;10146217;28;20050;-67
2022/03/17 14:15:09;;;;;;;12.85;2.47;;;;;;;7.26;100.00;102906.94;10152472;28;20050;-67
2022/03/17 14:20:06;;;;;;;11.75;1.90;;;;;;;7.23;100.00;102912.88;10154137;28;20058;-67
2022/03/17 14:25:04;;;;;;;15.88;2.38;;;;;;;7.37;100.00;102914.25;10215958;28;20045;-66
2022/03/17 14:30:00;;;;;;;9.98;1.77;;;;;;;7.54;100.00;102915.13;10193056;28;20129;-67
2022/03/17 14:34:57;;;;;;;8.55;1.92;;;;;;;7.61;100.00;102925.84;10191848;28;20140;-67
2022/03/17 14:39:53;;;;;;;12.20;1.58;;;;;;;7.62;100.00;102932.97;10192258;28;20510;-67
2022/03/17 14:44:50;;;;;;;11.90;2.45;;;;;;;7.84;100.00;102935.78;10192140;28;20081;-67
2022/03/17 14:49:46;;;;;;;13.70;2.35;;;;;;;8.22;100.00;102943.28;10190522;28;20080;-67
2022/03/17 14:54:43;;;;;;;14.57;2.80;;;;;;;8.25;100.00;102947.41;10186177;28;20076;-68
2022/03/17 14:59:39;;;;;;;17.58;1.90;;;;;;;8.44;100.00;102953.47;10180694;28;20077;-67
2022/03/17 15:04:37;;;;;;;10.90;1.95;;;;;;;8.51;100.00;102973.19;10185378;28;20041;-68
2022/03/17 15:09:37;;;;;;;14.05;1.67;;;;;;;8.58;100.00;102979.31;10183624;28;20046;-67
2022/03/17 15:14:34;;;;;;;18.65;2.70;;;;;;;8.62;100.00;102991.38;10185322;28;20078;-68
2022/03/17 15:19:30;;;;;;;14.75;1.90;;;;;;;8.90;100.00;102986.06;10185571;28;20091;-67
2022/03/17 15:24:27;;;;;;;14.55;2.20;;;;;;;9.05;100.00;103006.22;10176737;28;20479;-67
2022/03/17 15:34:59;;;;;;;18.25;2.38;;;;;;;8.83;100.00;103014.34;10064186;29;20058;-67
2022/03/17 15:39:55;;;;;;;16.10;2.97;;;;;;;8.84;100.00;103026.06;10145579;28;20512;-67
2022/03/17 15:44:53;;;;;;;13.40;2.28;;;;;;;9.08;100.00;103029.44;10179412;28;20136;-67
2022/03/17 15:49:50;;;;;;;14.70;3.35;;;;;;;9.85;100.00;103036.69;10180087;28;20073;-68
2022/03/17 15:54:46;;;;;;;12.02;1.83;;;;;;;10.15;100.00;103040.84;10179762;28;20140;-67
2022/03/17 15:59:43;;;;;;;15.77;3.22;;;;;;;9.64;100.00;103056.66;10178680;28;20069;-68
2022/03/17 16:04:40;;;;;;;13.68;2.45;;;;;;;9.65;100.00;103063.75;10180614;28;20085;-67
2022/03/17 16:14:52;;;;;;;14.18;1.90;;;;;;;9.68;100.00;103085.94;10189482;28;20041;-67
2022/03/17 16:19:54;;;;;;;18.45;2.72;;;;;;;9.33;100.00;103110.88;10187637;28;20077;-68
2022/03/17 16:24:51;;;;;;;13.73;2.20;;;;;;;9.68;100.00;103096.06;10188973;28;20056;-68
2022/03/17 16:29:49;;;;;;;10.10;1.95;;;;;;;9.33;100.00;103116.34;10187356;28;20515;-67
2022/03/17 16:34:46;;;;;;;15.75;3.17;;;;;;;9.15;100.00;103111.16;10189006;28;20100;-68
2022/03/17 16:39:42;;;;;;;11.40;1.75;;;;;;;8.66;100.00;103125.34;10187308;28;20076;-68
2022/03/17 16:44:39;;;;;;;11.95;1.70;;;;;;;8.51;100.00;103130.53;10184091;28;20114;-68
2022/03/17 16:49:36;;;;;;;22.92;2.78;;;;;;;8.25;100.00;103140.09;10177745;28;20050;-68
2022/03/17 16:54:32;;;;;;;17.60;3.10;;;;;;;8.12;100.00;103147.50;10181066;28;20145;-68
2022/03/17 16:59:30;;;;;;;18.00;2.42;;;;;;;7.92;100.00;103155.25;10181102;28;20138;-68
2022/03/17 17:04:26;;;;;;;13.10;2.53;;;;;;;7.80;100.00;103169.69;10182076;28;20108;-67
2022/03/17 17:09:23;;;;;;;16.23;2.22;;;;;;;7.56;100.00;103178.94;10181869;28;20057;-68
2022/03/17 17:14:20;;;;;;;17.00;2.83;;;;;;;7.52;100.00;103199.53;10187298;28;20097;-67
2022/03/17 17:19:23;;;;;;;13.90;3.28;;;;;;;7.46;100.00;103200.50;10168685;28;20042;-69
2022/03/17 17:34:50;;;;;;;32.40;6.90;;;;;;;7.12;100.00;103232.84;10188205;28;20049;-68
2022/03/17 17:39:49;;;;;;;19.08;4.68;;;;;;;7.08;100.00;103248.84;10184304;28;20048;-68
2022/03/17 17:44:46;;;;;;;23.95;4.53;;;;;;;7.06;100.00;103255.56;10188256;28;20038;-68
2022/03/17 17:49:42;;;;;;;11.73;2.35;;;;;;;6.91;100.00;103270.41;10188220;28;20462;-67
2022/03/17 17:54:39;;;;;;;15.93;2.45;;;;;;;6.88;100.00;103281.75;10184140;28;20886;-68
2022/03/17 17:59:35;;;;;;;14.50;2.47;;;;;;;6.79;100.00;103291.28;10190992;28;20057;-69
2022/03/17 18:04:32;;;;;;;14.48;2.95;;;;;;;6.68;100.00;103302.91;10193389;28;20092;-69
2022/03/17 18:09:28;;;;;;;20.98;3.05;;;;;;;6.56;100.00;103307.47;10191964;28;20661;-69
2022/03/17 18:14:26;;;;;;;19.52;3.25;;;;;;;6.48;100.00;103314.88;10185999;28;20137;-69
2022/03/17 18:19:22;;;;;;;21.15;3.47;;;;;;;6.44;100.00;103316.38;10182584;28;20711;-69
2022/03/17 18:24:19;;;;;;;16.20;3.13;;;;;;;6.42;100.00;103321.22;10155931;28;20184;-69
2022/03/17 18:29:15;;;;;;;20.25;3.15;;;;;;;6.39;100.00;103337.16;10179753;28;20090;-67
2022/03/17 18:34:12;;;;;;;18.88;3.13;;;;;;;6.36;100.00;103343.88;10184069;28;20096;-67
2022/03/17 18:39:08;;;;;;;24.63;3.10;;;;;;;6.42;100.00;103351.09;10179666;28;20133;-67
2022/03/17 18:44:05;;;;;;;16.40;4.40;;;;;;;6.28;100.00;103360.44;10175026;28;20884;-67
2022/03/17 18:49:01;;;;;;;26.08;4.03;;;;;;;6.27;100.00;103361.53;10180694;28;20092;-68
2022/03/17 18:53:58;;;;;;;22.83;4.22;;;;;;;6.19;100.00;103376.19;10188235;28;20054;-68
2022/03/17 18:58:54;;;;;;;18.77;3.10;;;;;;;6.19;100.00;103386.25;10190887;28;20049;-68
2022/03/17 19:03:51;;;;;;;16.10;2.83;;;;;;;6.03;100.00;103391.16;10191060;28;20132;-67
2022/03/17 19:08:47;;;;;;;20.90;3.00;;;;;;;5.93;100.00;103404.41;10189411;28;20069;-67
2022/03/17 19:13:44;;;;;;;18.48;3.40;;;;;;;5.72;100.00;103424.59;10191441;28;20100;-68
2022/03/17 19:18:41;;;;;;;19.90;3.33;;;;;;;5.62;100.00;103419.66;10188545;28;20534;-68
2022/03/17 19:23:38;;;;;;;18.30;2.78;;;;;;;5.48;100.00;103434.34;10191053;28;20092;-68
2022/03/17 19:28:34;;;;;;;20.33;4.13;;;;;;;5.41;100.00;103444.41;10186962;28;20152;-68
2022/03/17 19:33:31;;;;;;;21.98;4.00;;;;;;;5.30;100.00;103448.63;10183046;28;20141;-68
2022/03/17 19:38:28;;;;;;;22.13;3.63;;;;;;;5.24;100.00;103455.75;10189305;28;20137;-68
2022/03/17 19:43:25;;;;;;;22.65;4.65;;;;;;;5.11;100.00;103471.25;10189914;28;20042;-67
2022/03/17 19:48:22;;;;;;;13.13;3.83;;;;;;;5.12;100.00;103462.88;10188038;28;20057;-67
2022/03/17 19:53:19;;;;;;;21.02;3.08;;;;;;;5.12;100.00;103487.28;10190112;28;20096;-67
2022/03/17 19:58:15;;;;;;;22.98;4.18;;;;;;;5.10;100.00;103497.50;10187303;28;20441;-67
2022/03/17 20:03:12;;;;;;;23.42;3.65;;;;;;;4.95;100.00;103494.22;10187714;28;20479;-68
2022/03/17 20:08:09;;;;;;;24.45;3.97;;;;;;;5.01;100.00;103506.91;10187470;28;20085;-68
2022/03/17 20:18:20;;;;;;;24.98;5.78;;;;;;;4.90;100.00;103523.81;10187645;28;20046;-68
2022/03/17 20:23:17;;;;;;;25.15;4.38;;;;;;;4.92;100.00;103543.44;10187453;28;20132;-69
2022/03/17 20:28:13;;;;;;;18.35;4.55;;;;;;;4.90;100.00;103543.66;10175112;28;20103;-68
2022/03/17 20:33:10;;;;;;;22.05;4.35;;;;;;;4.84;100.00;103548.03;10183739;28;20173;-70
2022/03/17 20:38:07;;;;;;;37.10;6.15;;;;;;;4.84;100.00;103558.88;10182566;28;20050;-70
2022/03/17 20:43:03;;;;;;;33.25;5.72;;;;;;;4.82;100.00;103566.38;10171383;28;20085;-70
2022/03/17 20:48:00;;;;;;;28.05;7.60;;;;;;;4.86;100.00;103574.94;10178645;28;20103;-67
2022/03/17 20:52:57;;;;;;;24.58;4.07;;;;;;;4.63;100.00;103583.47;10178098;28;20045;-68
2022/03/17 20:57:53;;;;;;;26.77;3.63;;;;;;;4.56;100.00;103594.31;10181155;28;20128;-68
2022/03/17 21:02:50;;;;;;;17.42;3.65;;;;;;;4.46;100.00;103599.31;10187833;28;20128;-68
2022/03/17 21:07:46;;;;;;;19.60;4.10;;;;;;;4.42;100.00;103617.00;10184289;28;20045;-67
2022/03/17 21:12:44;;;;;;;19.02;3.25;;;;;;;4.34;100.00;103626.16;10189962;28;20127;-69
2022/03/17 21:17:41;;;;;;;24.65;3.65;;;;;;;4.44;100.00;103623.06;10192336;28;20640;-71
2022/03/17 21:22:37;;;;;;;25.38;4.30;;;;;;;4.31;100.00;103623.84;10190545;28;20488;-70
2022/03/17 21:27:34;;;;;;;20.02;4.40;;;;;;;4.27;100.00;103622.63;10191920;28;20042;-70
2022/03/17 21:32:32;;;;;;;20.02;3.03;;;;;;;4.16;100.00;103631.31;10190448;28;20462;-70
2022/03/17 21:37:28;;;;;;;15.60;3.38;;;;;;;4.06;100.00;103630.84;10192387;28;20150;-70
2022/03/17 21:42:25;;;;;;;17.95;3.53;;;;;;;3.90;100.00;103643.72;10188555;28;20419;-69
2022/03/17 21:47:21;;;;;;;23.88;3.65;;;;;;;3.85;100.00;103640.75;10191405;28;20086;-69
2022/03/17 21:52:18;;;;;;;23.75;5.25;;;;;;;3.73;100.00;103651.31;10193739;28;20042;-69
2022/03/17 21:57:19;;;;;;;33.53;4.55;;;;;;;3.68;100.00;103655.66;10190646;28;20120;-69
2022/03/17 22:02:16;;;;;;;21.30;3.60;;;;;;;3.59;100.00;103666.63;10190388;28;20642;-70
2022/03/17 22:07:13;;;;;;;31.15;4.93;;;;;;;3.53;100.00;103659.34;10189783;28;20129;-69
2022/03/17 22:12:23;;;;;;;23.63;4.90;;;;;;;3.56;100.00;103669.75;10191798;28;20061;-69
2022/03/17 22:17:21;;;;;;;25.30;4.13;;;;;;;3.48;100.00;103672.63;10189046;28;20400;-69
2022/03/17 22:22:22;;;;;;;20.00;3.70;;;;;;;3.55;100.00;103678.91;10190675;28;20504;-70
2022/03/17 22:27:18;;;;;;;19.13;4.18;;;;;;;3.47;100.00;103676.34;10190793;28;20084;-69
2022/03/17 22:32:15;;;;;;;18.50;4.28;;;;;;;3.46;100.00;103677.41;10188783;28;20104;-69
2022/03/17 22:37:11;;;;;;;18.45;3.70;;;;;;;3.53;100.00;103685.56;10190092;28;20128;-69
2022/03/17 22:42:08;;;;;;;20.45;3.70;;;;;;;3.47;100.00;103687.16;10192029;28;20046;-70
2022/03/17 22:47:04;;;;;;;22.60;5.40;;;;;;;3.47;100.00;103687.16;10191032;28;20046;-69
2022/03/17 22:52:03;;;;;;;20.70;4.25;;;;;;;3.52;100.00;103690.09;10190876;28;20041;-70
2022/03/17 22:56:59;;;;;;;17.17;3.83;;;;;;;3.41;100.00;103696.06;10190843;28;20072;-72
2022/03/17 23:01:56;;;;;;;22.48;3.63;;;;;;;3.30;100.00;103696.63;10190366;28;20038;-72
2022/03/17 23:06:52;;;;;;;19.40;3.30;;;;;;;3.14;100.00;103697.72;10187851;28;20080;-72